createdAt,value
2019-02-02T00:01:09.487Z,48.10
2019-02-02T00:03:34.013Z,46.00
2019-02-02T00:05:58.493Z,45.63
2019-02-02T00:08:22.917Z,48.53
2019-02-02T00:10:47.390Z,48.43
2019-02-02T00:13:11.902Z,50.07
2019-02-02T00:15:36.440Z,46.87
2019-02-02T00:18:00.994Z,48.67
2019-02-02T00:20:25.464Z,48.70
2019-02-02T00:22:49.902Z,48.10
2019-02-02T00:25:14.741Z,47.67
2019-02-02T00:27:41.506Z,45.53
2019-02-02T00:30:11.283Z,52.23
2019-02-02T00:32:35.679Z,49.37
2019-02-02T00:35:00.104Z,49.87
2019-02-02T00:37:24.663Z,48.23
2019-02-02T00:39:49.100Z,50.30
2019-02-02T00:42:13.501Z,46.77
2019-02-02T00:44:37.931Z,49.87
2019-02-02T00:47:02.337Z,49.03
2019-02-02T00:49:26.760Z,50.73
2019-02-02T00:51:51.233Z,47.83
2019-02-02T00:54:15.660Z,50.50
2019-02-02T00:56:40.194Z,51.90
2019-02-02T00:59:04.873Z,48.43
2019-02-02T01:01:29.422Z,48.97
2019-02-02T01:03:53.912Z,52.33
2019-02-02T01:06:18.372Z,57.20
2019-02-02T01:08:42.865Z,50.93
2019-02-02T01:11:07.414Z,52.80
2019-02-02T01:13:31.823Z,49.93
2019-02-02T01:15:56.407Z,49.93
2019-02-02T01:18:20.866Z,51.00
2019-02-02T01:20:45.427Z,53.73
2019-02-02T01:23:09.966Z,53.93
2019-02-02T01:25:34.468Z,52.80
2019-02-02T01:28:05.515Z,50.63
2019-02-02T01:30:25.940Z,51.83
2019-02-02T01:32:50.504Z,50.83
2019-02-02T01:35:17.160Z,55.60
2019-02-02T01:37:41.699Z,52.40
2019-02-02T01:40:12.142Z,50.60
2019-02-02T01:42:36.641Z,52.87
2019-02-02T01:45:01.104Z,54.53
2019-02-02T01:47:27.135Z,53.70
2019-02-02T01:49:51.548Z,55.47
2019-02-02T01:52:15.974Z,56.20
2019-02-02T01:54:40.451Z,55.47
2019-02-02T01:57:05.124Z,52.97
2019-02-02T01:59:29.530Z,56.43
2019-02-02T02:01:54.136Z,60.30
2019-02-02T02:04:18.575Z,53.53
2019-02-02T02:06:43.078Z,55.20
2019-02-02T02:09:08.013Z,50.97
2019-02-02T02:11:32.448Z,54.67
2019-02-02T02:13:56.862Z,60.07
2019-02-02T02:16:21.359Z,55.10
2019-02-02T02:18:45.764Z,56.53
2019-02-02T02:21:10.244Z,59.57
2019-02-02T02:23:36.724Z,57.37
2019-02-02T02:26:00.841Z,52.53
2019-02-02T02:28:28.201Z,57.37
2019-02-02T02:30:51.350Z,60.50
2019-02-02T02:33:15.947Z,54.73
2019-02-02T02:35:40.310Z,56.33
2019-02-02T02:38:04.807Z,55.63
2019-02-02T02:40:29.281Z,57.63
2019-02-02T02:42:53.969Z,57.13
2019-02-02T02:45:18.602Z,54.57
2019-02-02T02:47:43.180Z,58.47
2019-02-02T02:50:15.772Z,55.40
2019-02-02T02:52:40.230Z,56.03
2019-02-02T02:55:07.476Z,54.33
2019-02-02T02:57:31.906Z,58.50
2019-02-02T02:59:56.298Z,53.43
2019-02-02T03:02:28.073Z,61.03
2019-02-02T03:04:52.514Z,54.83
2019-02-02T03:07:19.388Z,57.50
2019-02-02T03:09:43.040Z,59.67
2019-02-02T03:12:07.611Z,56.87
2019-02-02T03:14:32.033Z,60.47
2019-02-02T03:16:56.510Z,62.23
2019-02-02T03:19:20.934Z,62.23
2019-02-02T03:21:45.343Z,58.90
2019-02-02T03:24:09.851Z,61.40
2019-02-02T03:26:34.255Z,58.17
2019-02-02T03:28:58.653Z,57.80
2019-02-02T03:31:23.082Z,56.40
2019-02-02T03:33:47.486Z,57.10
2019-02-02T03:36:11.985Z,63.67
2019-02-02T03:38:36.535Z,56.93
2019-02-02T03:41:00.880Z,61.53
2019-02-02T03:43:25.286Z,59.27
2019-02-02T03:45:49.720Z,59.33
2019-02-02T03:48:14.113Z,59.70
2019-02-02T03:50:38.530Z,65.33
2019-02-02T03:53:02.996Z,59.97
2019-02-02T03:55:27.490Z,57.77
2019-02-02T03:57:51.927Z,63.77
2019-02-02T04:00:20.731Z,60.30
2019-02-02T04:02:45.673Z,58.43
2019-02-02T04:05:13.399Z,61.33
2019-02-02T04:07:37.829Z,62.87
2019-02-02T04:10:02.225Z,60.13
2019-02-02T04:12:26.658Z,66.40
2019-02-02T04:14:51.056Z,62.20
2019-02-02T04:17:15.480Z,55.20
2019-02-02T04:19:39.880Z,62.03
2019-02-02T04:22:08.751Z,61.40
2019-02-02T04:24:33.159Z,63.23
2019-02-02T04:26:57.577Z,65.63
2019-02-02T04:29:21.980Z,58.30
2019-02-02T04:31:46.416Z,61.20
2019-02-02T04:34:10.822Z,57.83
2019-02-02T04:36:35.299Z,64.07
2019-02-02T04:38:59.808Z,64.00
2019-02-02T04:41:24.206Z,55.90
2019-02-02T04:43:48.711Z,62.73
2019-02-02T04:46:13.106Z,58.83
2019-02-02T04:48:37.540Z,61.10
2019-02-02T04:51:01.950Z,61.73
2019-02-02T04:53:26.453Z,63.23
2019-02-02T04:55:50.919Z,62.70
2019-02-02T04:58:15.346Z,59.37
2019-02-02T05:00:39.738Z,59.37
2019-02-02T05:03:04.508Z,61.77
2019-02-02T05:05:28.919Z,58.93
2019-02-02T05:07:53.348Z,55.97
2019-02-02T05:10:20.231Z,62.17
2019-02-02T05:12:44.697Z,61.80
2019-02-02T05:15:09.645Z,60.83
2019-02-02T05:17:34.046Z,61.13
2019-02-02T05:19:58.472Z,64.27
2019-02-02T05:22:22.871Z,63.73
2019-02-02T05:24:47.290Z,61.17
2019-02-02T05:27:11.686Z,63.03
2019-02-02T05:29:41.682Z,64.80
2019-02-02T05:32:02.286Z,68.50
2019-02-02T05:34:26.711Z,65.53
2019-02-02T05:36:51.154Z,64.60
2019-02-02T05:39:15.604Z,62.53
2019-02-02T05:41:39.987Z,68.10
2019-02-02T05:44:04.663Z,65.67
2019-02-02T05:46:29.075Z,62.93
2019-02-02T05:48:53.482Z,67.37
2019-02-02T05:51:17.910Z,71.33
2019-02-02T05:53:42.449Z,66.33
2019-02-02T05:56:06.884Z,62.90
2019-02-02T05:58:31.275Z,65.27
2019-02-02T06:00:56.166Z,68.07
2019-02-02T06:03:20.713Z,63.47
2019-02-02T06:05:45.136Z,63.77
2019-02-02T06:08:09.614Z,62.43
2019-02-02T06:10:34.073Z,67.57
2019-02-02T06:12:58.519Z,69.13
2019-02-02T06:15:22.957Z,65.00
2019-02-02T06:17:47.437Z,67.87
2019-02-02T06:20:14.001Z,72.73
2019-02-02T06:22:38.405Z,66.90
2019-02-02T06:25:02.813Z,63.57
2019-02-02T06:27:27.253Z,65.43
2019-02-02T06:29:51.727Z,67.13
2019-02-02T06:32:16.179Z,63.67
2019-02-02T06:34:40.756Z,70.73
2019-02-02T06:37:05.213Z,61.93
2019-02-02T06:39:29.617Z,64.93
2019-02-02T06:41:54.051Z,63.90
2019-02-02T06:44:18.461Z,66.50
2019-02-02T06:46:43.836Z,61.50
2019-02-02T06:49:08.370Z,65.83
2019-02-02T06:51:32.801Z,67.47
2019-02-02T06:53:57.198Z,62.20
2019-02-02T06:56:21.624Z,68.10
2019-02-02T06:58:46.024Z,62.47
2019-02-02T07:01:10.493Z,66.50
2019-02-02T07:03:35.794Z,65.33
2019-02-02T07:06:00.213Z,63.13
2019-02-02T07:08:24.733Z,68.67
2019-02-02T07:10:49.143Z,70.10
2019-02-02T07:13:13.616Z,70.43
2019-02-02T07:15:38.022Z,65.40
2019-02-02T07:18:02.525Z,69.63
2019-02-02T07:20:27.339Z,60.50
2019-02-02T07:22:51.856Z,66.80
2019-02-02T07:25:16.343Z,66.93
2019-02-02T07:27:40.927Z,65.53
2019-02-02T07:30:29.477Z,64.40
2019-02-02T07:32:53.887Z,64.47
2019-02-02T07:35:17.558Z,71.07
2019-02-02T07:37:42.041Z,73.37
2019-02-02T07:40:09.560Z,68.93
2019-02-02T07:42:33.962Z,69.57
2019-02-02T07:44:58.389Z,71.23
2019-02-02T07:47:22.891Z,71.97
2019-02-02T07:49:47.331Z,73.33
2019-02-02T07:52:11.810Z,76.70
2019-02-02T07:54:36.240Z,100.87
2019-02-02T07:57:00.653Z,74.40
2019-02-02T07:59:25.129Z,71.47
2019-02-02T08:01:49.606Z,67.43
2019-02-02T08:04:14.033Z,73.53
2019-02-02T08:06:38.438Z,70.80
2019-02-02T08:09:04.581Z,65.47
2019-02-02T08:11:30.453Z,69.67
2019-02-02T08:13:54.879Z,70.07
2019-02-02T08:16:19.305Z,70.73
2019-02-02T08:18:43.719Z,70.63
2019-02-02T08:21:08.354Z,70.37
2019-02-02T08:23:32.780Z,69.27
2019-02-02T08:25:57.272Z,70.90
2019-02-02T08:28:22.003Z,68.07
2019-02-02T08:30:52.614Z,71.40
2019-02-02T08:33:12.591Z,67.60
2019-02-02T08:35:37.090Z,71.33
2019-02-02T08:38:01.561Z,71.47
2019-02-02T08:40:26.062Z,74.87
2019-02-02T08:42:50.596Z,75.00
2019-02-02T08:45:15.744Z,69.93
2019-02-02T08:47:40.168Z,70.50
2019-02-02T08:50:11.102Z,75.10
2019-02-02T08:52:35.529Z,75.30
2019-02-02T08:54:59.951Z,66.07
2019-02-02T08:57:24.458Z,69.53
2019-02-02T08:59:48.869Z,70.27
2019-02-02T09:02:13.448Z,66.93
2019-02-02T09:04:37.980Z,65.17
2019-02-02T09:07:02.446Z,66.57
2019-02-02T09:09:26.867Z,66.63
2019-02-02T09:11:51.382Z,74.33
2019-02-02T09:14:15.782Z,68.83
2019-02-02T09:16:40.263Z,71.20
2019-02-02T09:19:04.811Z,62.83
2019-02-02T09:21:29.207Z,67.17
2019-02-02T09:23:53.643Z,69.53
2019-02-02T09:26:18.059Z,64.40
2019-02-02T09:28:43.507Z,77.57
2019-02-02T09:31:15.598Z,70.53
2019-02-02T09:33:34.097Z,64.73
2019-02-02T09:35:58.510Z,67.40
2019-02-02T09:38:23.072Z,71.03
2019-02-02T09:40:47.494Z,67.77
2019-02-02T09:43:12.089Z,73.47
2019-02-02T09:45:36.612Z,68.70
2019-02-02T09:48:01.169Z,69.37
2019-02-02T09:50:27.025Z,71.60
2019-02-02T09:52:51.676Z,69.70
2019-02-02T09:55:18.557Z,68.67
2019-02-02T09:57:43.129Z,69.63
2019-02-02T10:00:10.626Z,68.80
2019-02-02T10:02:35.039Z,68.87
2019-02-02T10:04:59.468Z,74.97
2019-02-02T10:07:23.896Z,76.40
2019-02-02T10:09:48.318Z,71.97
2019-02-02T10:12:12.995Z,76.13
2019-02-02T10:14:37.428Z,73.87
2019-02-02T10:17:01.844Z,77.50
2019-02-02T10:19:26.356Z,80.10
2019-02-02T10:21:50.755Z,75.93
2019-02-02T10:24:15.201Z,71.93
2019-02-02T10:26:39.612Z,79.73
2019-02-02T10:29:04.132Z,80.70
2019-02-02T10:31:38.918Z,78.53
2019-02-02T10:33:54.647Z,74.43
2019-02-02T10:36:20.156Z,79.70
2019-02-02T10:38:44.657Z,81.60
2019-02-02T10:41:09.228Z,82.47
2019-02-02T10:43:33.632Z,75.83
2019-02-02T10:45:58.133Z,80.87
2019-02-02T10:48:22.542Z,76.93
2019-02-02T10:50:46.971Z,80.90
2019-02-02T10:53:11.400Z,80.90
2019-02-02T10:55:35.977Z,78.30
2019-02-02T10:58:00.451Z,97.97
2019-02-02T11:00:27.659Z,112.67
2019-02-02T11:02:56.760Z,110.87
2019-02-02T11:05:21.398Z,100.27
2019-02-02T11:07:45.899Z,87.33
2019-02-02T11:10:13.500Z,91.10
2019-02-02T11:12:37.948Z,99.40
2019-02-02T11:15:02.648Z,97.63
2019-02-02T11:17:28.705Z,94.67
2019-02-02T11:19:53.139Z,94.40
2019-02-02T11:22:17.740Z,91.57
2019-02-02T11:24:42.312Z,92.17
2019-02-02T11:27:06.783Z,91.90
2019-02-02T11:29:31.322Z,102.43
2019-02-02T11:32:02.435Z,136.00
2019-02-02T11:34:21.919Z,158.07
2019-02-02T11:36:46.350Z,97.83
2019-02-02T11:39:10.902Z,93.70
2019-02-02T11:41:35.329Z,93.63
2019-02-02T11:43:59.758Z,94.57
2019-02-02T11:46:24.222Z,87.20
2019-02-02T11:48:48.637Z,101.47
2019-02-02T11:51:13.175Z,97.60
2019-02-02T11:53:37.768Z,89.93
2019-02-02T11:56:02.182Z,96.00
2019-02-02T11:58:26.642Z,96.40
2019-02-02T12:00:51.139Z,94.70
2019-02-02T12:03:15.568Z,99.33
2019-02-02T12:05:40.051Z,89.80
2019-02-02T12:08:04.729Z,95.40
2019-02-02T12:10:31.066Z,94.17
2019-02-02T12:12:55.647Z,103.90
2019-02-02T12:15:20.239Z,98.37
2019-02-02T12:17:44.793Z,101.97
2019-02-02T12:20:12.567Z,99.10
2019-02-02T12:22:37.039Z,98.83
2019-02-02T12:25:02.217Z,99.47
2019-02-02T12:27:26.767Z,102.53
2019-02-02T12:32:27.043Z,97.37
2019-02-02T12:34:51.663Z,97.00
2019-02-02T12:37:16.139Z,99.57
2019-02-02T12:39:40.653Z,98.17
2019-02-02T12:42:05.198Z,100.77
2019-02-02T12:44:29.645Z,97.80
2019-02-02T12:46:54.061Z,93.23
2019-02-02T12:49:18.490Z,96.47
2019-02-02T12:51:42.893Z,96.73
2019-02-02T12:54:07.342Z,104.60
2019-02-02T12:56:31.773Z,100.33
2019-02-02T12:58:56.359Z,97.67
2019-02-02T13:01:20.780Z,97.53
2019-02-02T13:03:45.195Z,94.27
2019-02-02T13:06:09.631Z,103.03
2019-02-02T13:08:34.058Z,98.17
2019-02-02T13:10:58.485Z,101.87
2019-02-02T13:13:22.890Z,101.60
2019-02-02T13:15:47.386Z,99.87
2019-02-02T13:18:11.859Z,104.20
2019-02-02T13:20:36.368Z,99.77
2019-02-02T13:23:00.870Z,104.70
2019-02-02T13:25:25.458Z,97.17
2019-02-02T13:27:49.992Z,102.80
2019-02-02T13:30:20.492Z,99.23
2019-02-02T13:32:49.727Z,112.40
2019-02-02T13:35:13.951Z,110.50
2019-02-02T13:37:38.447Z,107.67
2019-02-02T13:40:03.747Z,110.10
2019-02-02T13:42:28.243Z,113.70
2019-02-02T13:44:52.662Z,111.63
2019-02-02T13:49:51.112Z,99.30
2019-02-02T13:52:15.633Z,107.67
2019-02-02T13:54:40.057Z,111.10
2019-02-02T13:57:04.560Z,102.37
2019-02-02T13:59:28.988Z,111.43
2019-02-02T14:01:53.477Z,103.27
2019-02-02T14:04:17.893Z,110.50
2019-02-02T14:06:42.341Z,109.17
2019-02-02T14:09:08.002Z,114.60
2019-02-02T14:11:32.404Z,109.47
2019-02-02T14:13:56.849Z,112.17
2019-02-02T14:16:21.312Z,105.70
2019-02-02T14:18:45.741Z,109.17
2019-02-02T14:21:10.232Z,106.47
2019-02-02T14:23:34.756Z,108.77
2019-02-02T14:25:59.238Z,107.53
2019-02-02T14:28:28.541Z,109.73
2019-02-02T14:30:49.794Z,106.53
2019-02-02T14:33:14.686Z,106.53
2019-02-02T14:35:39.190Z,109.37
2019-02-02T14:38:03.806Z,104.40
2019-02-02T14:40:28.235Z,111.50
2019-02-02T14:42:52.736Z,121.13
2019-02-02T14:45:20.200Z,106.47
2019-02-02T14:47:44.678Z,107.97
2019-02-02T14:50:11.915Z,111.37
2019-02-02T14:52:36.322Z,109.73
2019-02-02T14:55:00.858Z,115.33
2019-02-02T14:57:25.268Z,109.53
2019-02-02T14:59:49.738Z,113.97
2019-02-02T15:02:14.338Z,117.23
2019-02-02T15:04:38.759Z,109.60
2019-02-02T15:07:03.167Z,114.17
2019-02-02T15:09:27.627Z,117.60
2019-02-02T15:11:52.038Z,112.37
2019-02-02T15:14:16.492Z,108.00
2019-02-02T15:16:40.913Z,110.80
2019-02-02T15:19:05.452Z,112.93
2019-02-02T15:21:29.896Z,111.57
2019-02-02T15:23:54.296Z,120.10
2019-02-02T15:26:18.810Z,114.13
2019-02-02T15:28:43.223Z,117.40
2019-02-02T15:31:07.734Z,114.70
2019-02-02T15:33:37.924Z,121.83
2019-02-02T15:35:58.397Z,114.97
2019-02-02T15:38:22.752Z,113.30
2019-02-02T15:40:58.460Z,119.77
2019-02-02T15:43:13.300Z,112.53
2019-02-02T15:45:37.753Z,109.90
2019-02-02T15:48:02.162Z,114.43
2019-02-02T15:50:26.672Z,119.03
2019-02-02T15:52:51.165Z,117.03
2019-02-02T15:55:18.073Z,109.77
2019-02-02T15:57:42.664Z,116.80
2019-02-02T16:00:10.119Z,107.60
2019-02-02T16:02:34.557Z,109.43
2019-02-02T16:04:58.968Z,102.70
2019-02-02T16:07:23.395Z,113.30
2019-02-02T16:09:47.818Z,108.00
2019-02-02T16:12:12.248Z,122.50
2019-02-02T16:14:36.683Z,119.10
2019-02-02T16:17:01.177Z,115.60
2019-02-02T16:19:25.626Z,111.07
2019-02-02T16:21:50.133Z,108.97
2019-02-02T16:24:14.618Z,109.47
2019-02-02T16:26:39.046Z,106.83
2019-02-02T16:29:03.548Z,110.60
2019-02-02T16:31:27.962Z,106.83
2019-02-02T16:34:01.453Z,103.20
2019-02-02T16:36:18.517Z,106.60
2019-02-02T16:38:42.981Z,101.37
2019-02-02T16:41:07.397Z,106.90
2019-02-02T16:43:31.850Z,99.10
2019-02-02T16:45:56.348Z,102.67
2019-02-02T16:48:20.787Z,109.17
2019-02-02T16:50:45.289Z,105.63
2019-02-02T16:53:09.804Z,100.50
2019-02-02T16:55:34.225Z,99.07
2019-02-02T16:57:58.732Z,107.80
2019-02-02T17:00:25.078Z,98.73
2019-02-02T17:02:49.625Z,104.17
2019-02-02T17:05:14.318Z,102.63
2019-02-02T17:07:38.815Z,113.27
2019-02-02T17:10:03.701Z,111.50
2019-02-02T17:12:28.113Z,106.10
2019-02-02T17:14:55.575Z,108.20
2019-02-02T17:17:32.437Z,106.57
2019-02-02T17:19:56.931Z,109.30
2019-02-02T17:22:21.365Z,107.53
2019-02-02T17:24:45.814Z,105.73
2019-02-02T17:27:10.236Z,111.47
2019-02-02T17:29:34.678Z,114.73
2019-02-02T17:31:59.236Z,114.83
2019-02-02T17:34:27.483Z,110.70
2019-02-02T17:36:49.847Z,112.17
2019-02-02T17:39:14.295Z,110.57
2019-02-02T17:41:38.784Z,114.30
2019-02-02T17:44:03.211Z,110.37
2019-02-02T17:46:27.663Z,110.30
2019-02-02T17:48:52.095Z,101.13
2019-02-02T17:51:16.551Z,103.73
2019-02-02T17:53:40.979Z,109.20
2019-02-02T17:56:05.707Z,114.63
2019-02-02T17:58:39.289Z,112.13
2019-02-02T18:00:56.633Z,114.70
2019-02-02T18:03:21.107Z,111.23
2019-02-02T18:05:45.613Z,106.47
2019-02-02T18:08:10.184Z,111.23
2019-02-02T18:10:34.770Z,109.97
2019-02-02T18:12:59.247Z,108.60
2019-02-02T18:15:23.711Z,104.73
2019-02-02T18:17:48.123Z,105.67
2019-02-02T18:20:16.677Z,110.17
2019-02-02T18:22:41.197Z,108.03
2019-02-02T18:25:08.625Z,109.57
2019-02-02T18:27:33.064Z,111.73
2019-02-02T18:29:57.554Z,107.97
2019-02-02T18:32:32.689Z,110.77
2019-02-02T18:34:57.108Z,105.60
2019-02-02T18:37:21.612Z,99.80
2019-02-02T18:39:46.017Z,105.60
2019-02-02T18:42:10.458Z,109.37
2019-02-02T18:44:34.937Z,114.60
2019-02-02T18:46:59.388Z,111.97
2019-02-02T18:49:23.880Z,111.83
2019-02-02T18:51:48.385Z,106.67
2019-02-02T18:54:12.793Z,107.27
2019-02-02T18:56:37.304Z,114.00
2019-02-02T18:59:01.745Z,104.63
2019-02-02T19:01:26.158Z,110.50
2019-02-02T19:03:50.614Z,103.97
2019-02-02T19:06:15.065Z,105.23
2019-02-02T19:08:39.578Z,101.90
2019-02-02T19:11:04.157Z,106.93
2019-02-02T19:13:28.693Z,104.47
2019-02-02T19:15:53.108Z,104.00
2019-02-02T19:18:17.561Z,103.53
2019-02-02T19:20:42.042Z,105.90
2019-02-02T19:23:06.724Z,99.77
2019-02-02T19:25:31.135Z,93.13
2019-02-02T19:27:55.678Z,101.57
2019-02-02T19:30:33.551Z,97.13
2019-02-02T19:32:58.022Z,105.10
2019-02-02T19:35:22.541Z,99.00
2019-02-02T19:37:47.031Z,100.33
2019-02-02T19:40:14.459Z,98.40
2019-02-02T19:42:38.959Z,106.57
2019-02-02T19:45:03.587Z,102.87
2019-02-02T19:47:27.987Z,100.63
2019-02-02T19:49:52.431Z,104.30
2019-02-02T19:52:16.912Z,106.37
2019-02-02T19:54:41.384Z,101.53
2019-02-02T19:57:05.931Z,107.97
2019-02-02T19:59:30.380Z,105.90
2019-02-02T20:01:54.800Z,107.80
2019-02-02T20:04:19.232Z,107.70
2019-02-02T20:06:43.644Z,112.77
2019-02-02T20:09:09.072Z,109.23
2019-02-02T20:11:33.520Z,110.60
2019-02-02T20:13:57.939Z,107.93
2019-02-02T20:16:22.381Z,114.23
2019-02-02T20:18:46.789Z,115.37
2019-02-02T20:21:11.344Z,117.87
2019-02-02T20:23:38.624Z,116.60
2019-02-02T20:26:01.936Z,119.47
2019-02-02T20:28:26.351Z,110.07
2019-02-02T20:30:50.862Z,112.57
2019-02-02T20:33:15.309Z,110.43
2019-02-02T20:35:42.359Z,116.97
2019-02-02T20:38:05.991Z,118.40
2019-02-02T20:40:30.513Z,113.17
2019-02-02T20:42:55.206Z,113.90
2019-02-02T20:45:27.684Z,114.67
2019-02-02T20:47:52.224Z,115.13
2019-02-02T20:50:18.190Z,125.63
2019-02-02T20:52:47.630Z,117.13
2019-02-02T20:55:22.982Z,123.10
2019-02-02T20:57:47.777Z,124.07
2019-02-02T21:00:15.015Z,117.97
2019-02-02T21:02:39.461Z,125.00
2019-02-02T21:05:04.528Z,126.20
2019-02-02T21:07:28.972Z,121.03
2019-02-02T21:09:53.380Z,121.17
2019-02-02T21:12:17.818Z,118.83
2019-02-02T21:14:42.247Z,113.93
2019-02-02T21:17:07.146Z,115.97
2019-02-02T21:19:31.567Z,118.30
2019-02-02T21:21:56.120Z,123.57
2019-02-02T21:24:20.535Z,118.53
2019-02-02T21:26:45.068Z,116.40
2019-02-02T21:29:09.464Z,117.10
2019-02-02T21:31:33.918Z,124.20
2019-02-02T21:33:58.339Z,114.77
2019-02-02T21:36:22.771Z,110.67
2019-02-02T21:38:47.305Z,115.60
2019-02-02T21:41:11.715Z,111.03
2019-02-02T21:43:36.239Z,104.33
2019-02-02T21:46:00.651Z,105.67
2019-02-02T21:48:25.170Z,106.43
2019-02-02T21:50:49.858Z,108.10
2019-02-02T21:53:14.318Z,109.37
2019-02-02T21:55:38.731Z,108.17
2019-02-02T21:58:03.460Z,105.90
2019-02-02T22:00:30.227Z,106.83
2019-02-02T22:02:54.773Z,103.37
2019-02-02T22:05:19.352Z,105.70
2019-02-02T22:07:43.863Z,107.20
2019-02-02T22:10:11.371Z,95.00
2019-02-02T22:12:35.779Z,100.37
2019-02-02T22:15:02.584Z,107.73
2019-02-02T22:17:30.221Z,99.30
2019-02-02T22:19:54.670Z,100.80
2019-02-02T22:22:19.096Z,99.77
2019-02-02T22:24:43.552Z,104.47
2019-02-02T22:27:08.026Z,107.07
2019-02-02T22:29:32.542Z,103.47
2019-02-02T22:31:57.045Z,104.93
2019-02-02T22:34:21.552Z,108.87
2019-02-02T22:36:46.252Z,107.07
2019-02-02T22:39:10.749Z,111.20
2019-02-02T22:41:35.223Z,106.97
2019-02-02T22:43:59.646Z,104.17
2019-02-02T22:46:24.173Z,110.97
2019-02-02T22:48:48.585Z,104.90
2019-02-02T22:51:13.020Z,103.50
2019-02-02T22:53:37.428Z,101.50
2019-02-02T22:56:01.885Z,102.03
2019-02-02T22:58:26.298Z,106.07
2019-02-02T23:01:01.003Z,103.93
2019-02-02T23:03:37.494Z,106.97
2019-02-02T23:06:21.462Z,100.77
2019-02-02T23:09:23.646Z,112.40
2019-02-02T23:12:05.818Z,107.57
2019-02-02T23:14:36.314Z,100.33
2019-02-02T23:17:00.842Z,104.30
2019-02-02T23:19:25.324Z,107.87
2019-02-02T23:21:49.761Z,97.33
2019-02-02T23:24:14.251Z,91.67
2019-02-02T23:26:38.663Z,101.00
2019-02-02T23:29:03.522Z,91.93
2019-02-02T23:31:27.932Z,94.23
2019-02-02T23:33:52.384Z,85.80
2019-02-02T23:36:16.940Z,89.80
2019-02-02T23:38:41.456Z,96.13
2019-02-02T23:41:06.024Z,97.13
2019-02-02T23:43:30.465Z,93.37
2019-02-02T23:45:54.877Z,92.50
2019-02-02T23:48:19.397Z,91.23
2019-02-02T23:50:43.977Z,99.73
2019-02-02T23:53:08.401Z,94.40
2019-02-02T23:55:32.813Z,97.17
2019-02-02T23:57:57.345Z,102.73
